sensor_id;sensor_type;location;lat;lon;timestamp;temperature;humidity
70368;DHT22;57789;53.868;10.728;2022-07-29T00:02:09;13.40;99.90
70368;DHT22;57789;53.868;10.728;2022-07-29T00:04:35;13.30;99.90
70368;DHT22;57789;53.868;10.728;2022-07-29T00:07:02;13.10;99.90
70368;DHT22;57789;53.868;10.728;2022-07-29T00:09:28;12.90;99.90
70368;DHT22;57789;53.868;10.728;2022-07-29T00:11:57;12.80;99.90
70368;DHT22;57789;53.868;10.728;2022-07-29T00:14:23;12.60;99.90
70368;DHT22;57789;53.868;10.728;2022-07-29T00:16:50;12.50;99.90
70368;DHT22;57789;53.868;10.728;2022-07-29T00:19:16;12.60;99.90
70368;DHT22;57789;53.868;10.728;2022-07-29T00:21:41;12.60;99.90
70368;DHT22;57789;53.868;10.728;2022-07-29T00:24:07;12.70;99.90
70368;DHT22;57789;53.868;10.728;2022-07-29T00:26:33;12.50;99.90
70368;DHT22;57789;53.868;10.728;2022-07-29T00:29:00;12.60;99.90
70368;DHT22;57789;53.868;10.728;2022-07-29T00:31:29;12.50;99.90
70368;DHT22;57789;53.868;10.728;2022-07-29T00:33:55;12.50;99.90
70368;DHT22;57789;53.868;10.728;2022-07-29T00:36:22;12.50;99.90
70368;DHT22;57789;53.868;10.728;2022-07-29T00:38:51;12.50;99.90
70368;DHT22;57789;53.868;10.728;2022-07-29T00:41:17;12.60;99.90
70368;DHT22;57789;53.868;10.728;2022-07-29T00:43:43;12.60;99.90
70368;DHT22;57789;53.868;10.728;2022-07-29T00:46:09;12.60;99.90
70368;DHT22;57789;53.868;10.728;2022-07-29T00:48:35;12.60;99.90
70368;DHT22;57789;53.868;10.728;2022-07-29T00:51:03;12.50;99.90
70368;DHT22;57789;53.868;10.728;2022-07-29T00:53:30;12.40;99.90
70368;DHT22;57789;53.868;10.728;2022-07-29T00:55:57;12.30;99.90
70368;DHT22;57789;53.868;10.728;2022-07-29T00:58:24;12.30;99.90
70368;DHT22;57789;53.868;10.728;2022-07-29T01:00:50;12.30;99.90
70368;DHT22;57789;53.868;10.728;2022-07-29T01:03:16;12.30;99.90
70368;DHT22;57789;53.868;10.728;2022-07-29T01:05:44;12.30;99.90
70368;DHT22;57789;53.868;10.728;2022-07-29T01:08:11;12.30;99.90
70368;DHT22;57789;53.868;10.728;2022-07-29T01:10:39;12.40;99.90
70368;DHT22;57789;53.868;10.728;2022-07-29T01:13:06;12.30;99.90
70368;DHT22;57789;53.868;10.728;2022-07-29T01:15:37;12.20;99.90
70368;DHT22;57789;53.868;10.728;2022-07-29T01:18:16;12.10;99.90
70368;DHT22;57789;53.868;10.728;2022-07-29T01:21:16;12.10;99.90
70368;DHT22;57789;53.868;10.728;2022-07-29T01:29:47;12.10;99.90
70368;DHT22;57789;53.868;10.728;2022-07-29T01:32:19;12.10;99.90
70368;DHT22;57789;53.868;10.728;2022-07-29T01:39:42;11.90;99.90
70368;DHT22;57789;53.868;10.728;2022-07-29T01:42:42;11.90;99.90
70368;DHT22;57789;53.868;10.728;2022-07-29T01:45:17;11.70;99.90
70368;DHT22;57789;53.868;10.728;2022-07-29T01:47:49;11.70;99.90
70368;DHT22;57789;53.868;10.728;2022-07-29T01:50:17;11.80;99.90
70368;DHT22;57789;53.868;10.728;2022-07-29T01:52:56;11.80;99.90
70368;DHT22;57789;53.868;10.728;2022-07-29T01:55:36;11.70;99.90
70368;DHT22;57789;53.868;10.728;2022-07-29T01:58:05;11.70;99.90
70368;DHT22;57789;53.868;10.728;2022-07-29T02:00:33;11.70;99.90
70368;DHT22;57789;53.868;10.728;2022-07-29T02:03:07;11.60;99.90
70368;DHT22;57789;53.868;10.728;2022-07-29T02:05:38;11.70;99.90
70368;DHT22;57789;53.868;10.728;2022-07-29T02:08:05;11.60;99.90
70368;DHT22;57789;53.868;10.728;2022-07-29T02:10:33;11.60;99.90
70368;DHT22;57789;53.868;10.728;2022-07-29T02:13:01;11.60;99.90
70368;DHT22;57789;53.868;10.728;2022-07-29T02:15:30;11.60;99.90
70368;DHT22;57789;53.868;10.728;2022-07-29T02:18:08;11.60;99.90
70368;DHT22;57789;53.868;10.728;2022-07-29T02:20:36;11.60;99.90
70368;DHT22;57789;53.868;10.728;2022-07-29T02:23:04;11.60;99.90
70368;DHT22;57789;53.868;10.728;2022-07-29T02:25:32;11.50;99.90
70368;DHT22;57789;53.868;10.728;2022-07-29T02:27:58;11.60;99.90
70368;DHT22;57789;53.868;10.728;2022-07-29T02:30:27;11.50;99.90
70368;DHT22;57789;53.868;10.728;2022-07-29T02:32:54;11.50;99.90
70368;DHT22;57789;53.868;10.728;2022-07-29T02:35:21;11.50;99.90
70368;DHT22;57789;53.868;10.728;2022-07-29T02:37:48;11.50;99.90
70368;DHT22;57789;53.868;10.728;2022-07-29T02:40:34;11.50;99.90
70368;DHT22;57789;53.868;10.728;2022-07-29T02:43:06;11.50;99.90
70368;DHT22;57789;53.868;10.728;2022-07-29T02:45:33;11.50;99.90
70368;DHT22;57789;53.868;10.728;2022-07-29T02:48:06;11.60;99.90
70368;DHT22;57789;53.868;10.728;2022-07-29T02:50:38;11.50;99.90
70368;DHT22;57789;53.868;10.728;2022-07-29T02:53:15;11.60;99.90
70368;DHT22;57789;53.868;10.728;2022-07-29T02:55:43;11.60;99.90
70368;DHT22;57789;53.868;10.728;2022-07-29T02:58:33;11.60;99.90
70368;DHT22;57789;53.868;10.728;2022-07-29T03:01:06;11.60;99.90
70368;DHT22;57789;53.868;10.728;2022-07-29T03:03:36;11.70;99.90
70368;DHT22;57789;53.868;10.728;2022-07-29T03:06:03;11.60;99.90
70368;DHT22;57789;53.868;10.728;2022-07-29T03:08:31;11.70;99.90
70368;DHT22;57789;53.868;10.728;2022-07-29T03:10:58;11.70;99.90
70368;DHT22;57789;53.868;10.728;2022-07-29T03:13:24;11.80;99.90
70368;DHT22;57789;53.868;10.728;2022-07-29T03:15:51;11.70;99.90
70368;DHT22;57789;53.868;10.728;2022-07-29T03:18:17;11.70;99.90
70368;DHT22;57789;53.868;10.728;2022-07-29T03:20:43;11.80;99.90
70368;DHT22;57789;53.868;10.728;2022-07-29T03:23:09;11.80;99.90
70368;DHT22;57789;53.868;10.728;2022-07-29T03:25:35;11.70;99.90
70368;DHT22;57789;53.868;10.728;2022-07-29T03:28:01;11.70;99.90
70368;DHT22;57789;53.868;10.728;2022-07-29T03:30:27;11.70;99.90
70368;DHT22;57789;53.868;10.728;2022-07-29T03:32:56;11.70;99.90
70368;DHT22;57789;53.868;10.728;2022-07-29T03:35:22;11.70;99.90
70368;DHT22;57789;53.868;10.728;2022-07-29T03:37:48;11.60;99.90
70368;DHT22;57789;53.868;10.728;2022-07-29T03:40:20;11.70;99.90
70368;DHT22;57789;53.868;10.728;2022-07-29T03:42:48;11.70;99.90
70368;DHT22;57789;53.868;10.728;2022-07-29T03:45:17;11.60;99.90
70368;DHT22;57789;53.868;10.728;2022-07-29T03:47:49;11.60;99.90
70368;DHT22;57789;53.868;10.728;2022-07-29T03:50:17;11.60;99.90
70368;DHT22;57789;53.868;10.728;2022-07-29T03:52:46;11.70;99.90
70368;DHT22;57789;53.868;10.728;2022-07-29T03:55:12;11.70;99.90
70368;DHT22;57789;53.868;10.728;2022-07-29T03:57:39;11.60;99.90
70368;DHT22;57789;53.868;10.728;2022-07-29T04:00:07;11.60;99.90
70368;DHT22;57789;53.868;10.728;2022-07-29T04:02:33;11.60;99.90
70368;DHT22;57789;53.868;10.728;2022-07-29T04:04:59;11.70;99.90
70368;DHT22;57789;53.868;10.728;2022-07-29T04:07:25;11.80;99.90
70368;DHT22;57789;53.868;10.728;2022-07-29T04:09:51;11.80;99.90
70368;DHT22;57789;53.868;10.728;2022-07-29T04:12:17;11.80;99.90
70368;DHT22;57789;53.868;10.728;2022-07-29T04:14:43;11.90;99.90
70368;DHT22;57789;53.868;10.728;2022-07-29T04:17:08;11.90;99.90
70368;DHT22;57789;53.868;10.728;2022-07-29T04:19:34;11.90;99.90
70368;DHT22;57789;53.868;10.728;2022-07-29T04:22:01;11.90;99.90
70368;DHT22;57789;53.868;10.728;2022-07-29T04:24:27;11.90;99.90
70368;DHT22;57789;53.868;10.728;2022-07-29T04:26:54;11.90;99.90
70368;DHT22;57789;53.868;10.728;2022-07-29T04:29:20;12.00;99.90
70368;DHT22;57789;53.868;10.728;2022-07-29T04:31:46;12.00;99.90
70368;DHT22;57789;53.868;10.728;2022-07-29T04:34:12;12.00;99.90
70368;DHT22;57789;53.868;10.728;2022-07-29T04:36:38;12.10;99.90
70368;DHT22;57789;53.868;10.728;2022-07-29T04:39:04;12.10;99.90
70368;DHT22;57789;53.868;10.728;2022-07-29T04:41:30;12.20;99.90
70368;DHT22;57789;53.868;10.728;2022-07-29T04:43:56;12.20;99.90
70368;DHT22;57789;53.868;10.728;2022-07-29T04:46:22;12.30;99.90
70368;DHT22;57789;53.868;10.728;2022-07-29T04:48:48;12.40;99.90
70368;DHT22;57789;53.868;10.728;2022-07-29T04:51:15;12.50;99.90
70368;DHT22;57789;53.868;10.728;2022-07-29T04:53:41;12.60;99.90
70368;DHT22;57789;53.868;10.728;2022-07-29T04:56:07;12.70;99.90
70368;DHT22;57789;53.868;10.728;2022-07-29T04:58:35;12.80;99.90
70368;DHT22;57789;53.868;10.728;2022-07-29T05:01:03;12.80;99.90
70368;DHT22;57789;53.868;10.728;2022-07-29T05:03:29;12.80;99.90
70368;DHT22;57789;53.868;10.728;2022-07-29T05:05:55;12.90;99.90
70368;DHT22;57789;53.868;10.728;2022-07-29T05:08:20;13.00;99.90
70368;DHT22;57789;53.868;10.728;2022-07-29T05:10:46;13.10;99.90
70368;DHT22;57789;53.868;10.728;2022-07-29T05:13:14;13.20;99.90
70368;DHT22;57789;53.868;10.728;2022-07-29T05:15:40;13.30;99.90
70368;DHT22;57789;53.868;10.728;2022-07-29T05:18:06;13.40;99.90
70368;DHT22;57789;53.868;10.728;2022-07-29T05:20:32;13.50;99.90
70368;DHT22;57789;53.868;10.728;2022-07-29T05:23:00;13.50;99.90
70368;DHT22;57789;53.868;10.728;2022-07-29T05:25:27;13.60;99.90
70368;DHT22;57789;53.868;10.728;2022-07-29T05:27:54;13.70;99.90
70368;DHT22;57789;53.868;10.728;2022-07-29T05:30:20;13.70;99.90
70368;DHT22;57789;53.868;10.728;2022-07-29T05:32:46;13.80;99.90
70368;DHT22;57789;53.868;10.728;2022-07-29T05:35:13;13.80;99.90
70368;DHT22;57789;53.868;10.728;2022-07-29T05:37:40;13.90;99.90
70368;DHT22;57789;53.868;10.728;2022-07-29T05:40:06;13.90;99.90
70368;DHT22;57789;53.868;10.728;2022-07-29T05:42:32;14.00;99.90
70368;DHT22;57789;53.868;10.728;2022-07-29T05:44:58;14.10;99.90
70368;DHT22;57789;53.868;10.728;2022-07-29T05:47:24;14.20;99.90
70368;DHT22;57789;53.868;10.728;2022-07-29T05:49:49;14.40;99.90
70368;DHT22;57789;53.868;10.728;2022-07-29T05:52:16;14.50;99.90
70368;DHT22;57789;53.868;10.728;2022-07-29T05:54:42;14.60;99.90
70368;DHT22;57789;53.868;10.728;2022-07-29T05:57:14;14.60;99.90
70368;DHT22;57789;53.868;10.728;2022-07-29T05:59:40;14.70;99.90
70368;DHT22;57789;53.868;10.728;2022-07-29T06:02:07;14.80;99.90
70368;DHT22;57789;53.868;10.728;2022-07-29T06:04:33;14.80;99.90
70368;DHT22;57789;53.868;10.728;2022-07-29T06:06:59;14.90;99.90
70368;DHT22;57789;53.868;10.728;2022-07-29T06:09:24;15.00;99.90
70368;DHT22;57789;53.868;10.728;2022-07-29T06:11:51;15.20;99.90
70368;DHT22;57789;53.868;10.728;2022-07-29T06:14:18;15.30;99.90
70368;DHT22;57789;53.868;10.728;2022-07-29T06:16:44;15.40;99.90
70368;DHT22;57789;53.868;10.728;2022-07-29T06:19:12;15.60;99.90
70368;DHT22;57789;53.868;10.728;2022-07-29T06:21:47;15.60;99.90
70368;DHT22;57789;53.868;10.728;2022-07-29T06:24:13;15.80;99.90
70368;DHT22;57789;53.868;10.728;2022-07-29T06:26:40;15.90;99.90
70368;DHT22;57789;53.868;10.728;2022-07-29T06:29:07;16.00;99.90
70368;DHT22;57789;53.868;10.728;2022-07-29T06:31:33;16.00;99.90
70368;DHT22;57789;53.868;10.728;2022-07-29T06:33:59;16.20;99.90
70368;DHT22;57789;53.868;10.728;2022-07-29T06:36:25;16.30;99.90
70368;DHT22;57789;53.868;10.728;2022-07-29T06:38:51;16.40;99.90
70368;DHT22;57789;53.868;10.728;2022-07-29T06:41:17;16.50;99.90
70368;DHT22;57789;53.868;10.728;2022-07-29T06:43:44;16.70;99.90
70368;DHT22;57789;53.868;10.728;2022-07-29T06:46:12;16.80;99.90
70368;DHT22;57789;53.868;10.728;2022-07-29T06:48:39;16.90;99.90
70368;DHT22;57789;53.868;10.728;2022-07-29T06:51:07;17.10;99.90
70368;DHT22;57789;53.868;10.728;2022-07-29T06:53:33;17.20;99.90
70368;DHT22;57789;53.868;10.728;2022-07-29T06:56:00;17.20;99.90
70368;DHT22;57789;53.868;10.728;2022-07-29T06:58:27;17.30;99.90
70368;DHT22;57789;53.868;10.728;2022-07-29T07:00:55;17.30;99.90
70368;DHT22;57789;53.868;10.728;2022-07-29T07:03:21;17.40;99.90
70368;DHT22;57789;53.868;10.728;2022-07-29T07:05:48;17.50;99.90
70368;DHT22;57789;53.868;10.728;2022-07-29T07:08:13;17.50;99.90
70368;DHT22;57789;53.868;10.728;2022-07-29T07:10:42;17.50;99.90
70368;DHT22;57789;53.868;10.728;2022-07-29T07:13:08;17.50;99.90
70368;DHT22;57789;53.868;10.728;2022-07-29T07:15:36;17.70;99.90
70368;DHT22;57789;53.868;10.728;2022-07-29T07:18:03;17.80;99.90
70368;DHT22;57789;53.868;10.728;2022-07-29T07:20:29;17.80;99.90
70368;DHT22;57789;53.868;10.728;2022-07-29T07:22:55;18.00;99.90
70368;DHT22;57789;53.868;10.728;2022-07-29T07:25:20;18.10;99.90
70368;DHT22;57789;53.868;10.728;2022-07-29T07:27:46;18.10;99.90
70368;DHT22;57789;53.868;10.728;2022-07-29T07:30:13;18.20;99.90
70368;DHT22;57789;53.868;10.728;2022-07-29T07:32:39;18.30;99.90
70368;DHT22;57789;53.868;10.728;2022-07-29T07:35:07;18.40;99.90
70368;DHT22;57789;53.868;10.728;2022-07-29T07:37:34;18.50;99.90
70368;DHT22;57789;53.868;10.728;2022-07-29T07:40:00;18.70;99.90
70368;DHT22;57789;53.868;10.728;2022-07-29T07:42:26;18.80;99.90
70368;DHT22;57789;53.868;10.728;2022-07-29T07:44:52;18.80;99.90
70368;DHT22;57789;53.868;10.728;2022-07-29T07:47:18;18.90;99.90
70368;DHT22;57789;53.868;10.728;2022-07-29T07:49:52;18.90;99.90
70368;DHT22;57789;53.868;10.728;2022-07-29T07:52:20;19.10;99.90
70368;DHT22;57789;53.868;10.728;2022-07-29T07:54:47;19.30;99.90
70368;DHT22;57789;53.868;10.728;2022-07-29T07:57:14;19.40;99.90
70368;DHT22;57789;53.868;10.728;2022-07-29T07:59:41;19.60;99.90
70368;DHT22;57789;53.868;10.728;2022-07-29T08:02:07;19.80;99.90
70368;DHT22;57789;53.868;10.728;2022-07-29T08:04:33;19.90;99.90
70368;DHT22;57789;53.868;10.728;2022-07-29T08:07:00;20.00;99.90
70368;DHT22;57789;53.868;10.728;2022-07-29T08:09:29;20.00;99.90
70368;DHT22;57789;53.868;10.728;2022-07-29T08:11:56;19.90;99.90
70368;DHT22;57789;53.868;10.728;2022-07-29T08:14:23;20.00;99.90
70368;DHT22;57789;53.868;10.728;2022-07-29T08:16:49;20.00;99.90
70368;DHT22;57789;53.868;10.728;2022-07-29T08:19:15;20.10;99.90
70368;DHT22;57789;53.868;10.728;2022-07-29T08:21:40;20.00;99.90
70368;DHT22;57789;53.868;10.728;2022-07-29T08:24:07;20.00;99.90
70368;DHT22;57789;53.868;10.728;2022-07-29T08:26:51;20.00;99.90
70368;DHT22;57789;53.868;10.728;2022-07-29T08:29:17;20.00;99.90
70368;DHT22;57789;53.868;10.728;2022-07-29T08:31:44;20.10;99.90
70368;DHT22;57789;53.868;10.728;2022-07-29T08:34:11;20.20;99.90
70368;DHT22;57789;53.868;10.728;2022-07-29T08:36:37;20.20;99.90
70368;DHT22;57789;53.868;10.728;2022-07-29T08:39:03;20.30;99.90
70368;DHT22;57789;53.868;10.728;2022-07-29T08:41:31;20.40;99.90
70368;DHT22;57789;53.868;10.728;2022-07-29T08:43:57;20.50;99.90
70368;DHT22;57789;53.868;10.728;2022-07-29T08:46:23;20.50;99.90
70368;DHT22;57789;53.868;10.728;2022-07-29T08:48:49;20.60;99.90
70368;DHT22;57789;53.868;10.728;2022-07-29T08:51:19;20.80;99.90
70368;DHT22;57789;53.868;10.728;2022-07-29T08:53:48;20.90;99.90
70368;DHT22;57789;53.868;10.728;2022-07-29T08:56:15;21.00;99.90
70368;DHT22;57789;53.868;10.728;2022-07-29T08:58:45;21.00;99.90
70368;DHT22;57789;53.868;10.728;2022-07-29T09:01:17;21.20;99.90
70368;DHT22;57789;53.868;10.728;2022-07-29T09:03:49;21.20;99.90
70368;DHT22;57789;53.868;10.728;2022-07-29T09:06:17;21.30;99.90
70368;DHT22;57789;53.868;10.728;2022-07-29T09:08:44;21.40;99.90
70368;DHT22;57789;53.868;10.728;2022-07-29T09:11:11;21.60;99.90
70368;DHT22;57789;53.868;10.728;2022-07-29T09:13:40;21.70;99.90
70368;DHT22;57789;53.868;10.728;2022-07-29T09:16:06;21.80;99.90
70368;DHT22;57789;53.868;10.728;2022-07-29T09:18:36;21.90;99.90
70368;DHT22;57789;53.868;10.728;2022-07-29T09:21:03;22.00;99.90
70368;DHT22;57789;53.868;10.728;2022-07-29T09:26:30;22.20;99.90
70368;DHT22;57789;53.868;10.728;2022-07-29T09:28:57;22.30;99.90
70368;DHT22;57789;53.868;10.728;2022-07-29T09:31:35;22.40;99.90
70368;DHT22;57789;53.868;10.728;2022-07-29T09:34:01;22.40;99.90
70368;DHT22;57789;53.868;10.728;2022-07-29T09:36:27;22.60;99.90
70368;DHT22;57789;53.868;10.728;2022-07-29T09:38:59;22.80;99.90
70368;DHT22;57789;53.868;10.728;2022-07-29T09:41:26;23.00;99.90
70368;DHT22;57789;53.868;10.728;2022-07-29T09:43:56;23.20;99.90
70368;DHT22;57789;53.868;10.728;2022-07-29T09:46:23;23.10;99.90
70368;DHT22;57789;53.868;10.728;2022-07-29T09:49:09;23.00;99.90
70368;DHT22;57789;53.868;10.728;2022-07-29T09:51:36;22.90;99.90
70368;DHT22;57789;53.868;10.728;2022-07-29T09:54:24;22.90;99.90
70368;DHT22;57789;53.868;10.728;2022-07-29T09:56:50;23.10;99.90
70368;DHT22;57789;53.868;10.728;2022-07-29T09:59:16;23.10;99.90
70368;DHT22;57789;53.868;10.728;2022-07-29T10:01:43;23.30;99.90
70368;DHT22;57789;53.868;10.728;2022-07-29T10:04:09;23.30;99.90
70368;DHT22;57789;53.868;10.728;2022-07-29T10:06:34;23.40;99.90
70368;DHT22;57789;53.868;10.728;2022-07-29T10:09:10;23.40;99.90
70368;DHT22;57789;53.868;10.728;2022-07-29T10:11:37;23.50;99.90
70368;DHT22;57789;53.868;10.728;2022-07-29T10:14:03;23.50;99.90
70368;DHT22;57789;53.868;10.728;2022-07-29T10:16:30;23.30;99.90
70368;DHT22;57789;53.868;10.728;2022-07-29T10:18:59;23.30;99.90
70368;DHT22;57789;53.868;10.728;2022-07-29T10:21:26;23.40;99.90
70368;DHT22;57789;53.868;10.728;2022-07-29T10:23:57;23.40;99.90
70368;DHT22;57789;53.868;10.728;2022-07-29T10:26:24;23.30;99.90
70368;DHT22;57789;53.868;10.728;2022-07-29T10:28:49;23.40;99.90
70368;DHT22;57789;53.868;10.728;2022-07-29T10:31:48;23.40;99.90
70368;DHT22;57789;53.868;10.728;2022-07-29T10:37:22;23.30;99.90
70368;DHT22;57789;53.868;10.728;2022-07-29T10:42:55;23.60;99.90
70368;DHT22;57789;53.868;10.728;2022-07-29T10:45:21;23.70;99.90
70368;DHT22;57789;53.868;10.728;2022-07-29T10:47:47;23.60;99.90
70368;DHT22;57789;53.868;10.728;2022-07-29T10:50:13;23.50;99.90
70368;DHT22;57789;53.868;10.728;2022-07-29T10:52:55;23.40;99.90
70368;DHT22;57789;53.868;10.728;2022-07-29T10:55:34;23.40;99.90
70368;DHT22;57789;53.868;10.728;2022-07-29T10:58:17;23.30;99.90
70368;DHT22;57789;53.868;10.728;2022-07-29T11:00:46;23.40;99.90
70368;DHT22;57789;53.868;10.728;2022-07-29T11:06:06;23.70;99.90
70368;DHT22;57789;53.868;10.728;2022-07-29T11:08:32;23.90;99.90
70368;DHT22;57789;53.868;10.728;2022-07-29T11:13:50;23.80;99.90
70368;DHT22;57789;53.868;10.728;2022-07-29T11:16:18;23.80;99.90
70368;DHT22;57789;53.868;10.728;2022-07-29T11:21:41;23.80;99.90
70368;DHT22;57789;53.868;10.728;2022-07-29T11:24:15;23.60;99.90
70368;DHT22;57789;53.868;10.728;2022-07-29T11:26:41;23.60;99.90
70368;DHT22;57789;53.868;10.728;2022-07-29T11:29:19;23.80;99.90
70368;DHT22;57789;53.868;10.728;2022-07-29T11:31:50;24.00;99.90
70368;DHT22;57789;53.868;10.728;2022-07-29T11:39:37;24.10;99.80
70368;DHT22;57789;53.868;10.728;2022-07-29T11:44:54;23.90;99.90
70368;DHT22;57789;53.868;10.728;2022-07-29T11:47:24;24.20;99.90
70368;DHT22;57789;53.868;10.728;2022-07-29T11:49:51;24.50;99.50
70368;DHT22;57789;53.868;10.728;2022-07-29T11:52:18;24.50;98.70
70368;DHT22;57789;53.868;10.728;2022-07-29T11:54:48;24.30;99.50
70368;DHT22;57789;53.868;10.728;2022-07-29T11:57:18;24.30;99.90
70368;DHT22;57789;53.868;10.728;2022-07-29T11:59:47;24.70;99.90
70368;DHT22;57789;53.868;10.728;2022-07-29T12:02:13;25.10;99.50
70368;DHT22;57789;53.868;10.728;2022-07-29T12:04:56;25.30;98.40
70368;DHT22;57789;53.868;10.728;2022-07-29T12:07:31;25.00;98.50
70368;DHT22;57789;53.868;10.728;2022-07-29T12:10:00;24.80;99.00
70368;DHT22;57789;53.868;10.728;2022-07-29T12:12:26;24.40;99.70
70368;DHT22;57789;53.868;10.728;2022-07-29T12:14:52;24.40;99.90
70368;DHT22;57789;53.868;10.728;2022-07-29T12:17:27;24.30;99.70
70368;DHT22;57789;53.868;10.728;2022-07-29T12:19:54;24.00;99.90
70368;DHT22;57789;53.868;10.728;2022-07-29T12:22:27;23.80;99.90
70368;DHT22;57789;53.868;10.728;2022-07-29T12:24:54;23.80;99.90
70368;DHT22;57789;53.868;10.728;2022-07-29T12:27:20;23.70;99.90
70368;DHT22;57789;53.868;10.728;2022-07-29T12:29:57;23.60;99.90
70368;DHT22;57789;53.868;10.728;2022-07-29T12:32:23;23.80;99.90
70368;DHT22;57789;53.868;10.728;2022-07-29T12:34:50;23.80;99.90
70368;DHT22;57789;53.868;10.728;2022-07-29T12:37:16;23.60;99.90
70368;DHT22;57789;53.868;10.728;2022-07-29T12:39:42;23.60;99.90
70368;DHT22;57789;53.868;10.728;2022-07-29T12:42:13;23.50;99.90
70368;DHT22;57789;53.868;10.728;2022-07-29T12:44:50;23.60;99.90
70368;DHT22;57789;53.868;10.728;2022-07-29T12:47:17;23.40;99.90
70368;DHT22;57789;53.868;10.728;2022-07-29T12:49:44;23.30;99.90
70368;DHT22;57789;53.868;10.728;2022-07-29T12:52:27;23.10;99.90
70368;DHT22;57789;53.868;10.728;2022-07-29T12:54:53;23.10;99.90
70368;DHT22;57789;53.868;10.728;2022-07-29T12:57:21;23.20;99.90
70368;DHT22;57789;53.868;10.728;2022-07-29T13:00:09;23.10;99.90
70368;DHT22;57789;53.868;10.728;2022-07-29T13:02:37;22.90;99.90
70368;DHT22;57789;53.868;10.728;2022-07-29T13:05:05;23.10;99.90
70368;DHT22;57789;53.868;10.728;2022-07-29T13:07:33;23.20;99.90
70368;DHT22;57789;53.868;10.728;2022-07-29T13:12:36;23.40;99.90
70368;DHT22;57789;53.868;10.728;2022-07-29T13:15:13;23.30;99.90
70368;DHT22;57789;53.868;10.728;2022-07-29T13:17:43;23.20;99.90
70368;DHT22;57789;53.868;10.728;2022-07-29T13:20:11;22.90;99.90
70368;DHT22;57789;53.868;10.728;2022-07-29T13:22:41;22.80;99.90
70368;DHT22;57789;53.868;10.728;2022-07-29T13:25:09;22.60;99.90
70368;DHT22;57789;53.868;10.728;2022-07-29T13:27:36;22.40;99.90
70368;DHT22;57789;53.868;10.728;2022-07-29T13:30:05;22.50;99.90
70368;DHT22;57789;53.868;10.728;2022-07-29T13:32:32;22.70;99.90
70368;DHT22;57789;53.868;10.728;2022-07-29T13:35:07;22.80;99.90
70368;DHT22;57789;53.868;10.728;2022-07-29T13:37:34;23.00;99.90
70368;DHT22;57789;53.868;10.728;2022-07-29T13:40:04;23.10;99.90
70368;DHT22;57789;53.868;10.728;2022-07-29T13:42:31;23.00;99.90
70368;DHT22;57789;53.868;10.728;2022-07-29T13:44:57;23.10;99.90
70368;DHT22;57789;53.868;10.728;2022-07-29T13:47:23;23.20;99.90
70368;DHT22;57789;53.868;10.728;2022-07-29T13:49:49;23.50;99.90
70368;DHT22;57789;53.868;10.728;2022-07-29T13:52:15;23.60;99.90
70368;DHT22;57789;53.868;10.728;2022-07-29T13:54:43;24.00;99.90
70368;DHT22;57789;53.868;10.728;2022-07-29T13:57:10;24.70;99.90
70368;DHT22;57789;53.868;10.728;2022-07-29T13:59:37;25.00;99.90
70368;DHT22;57789;53.868;10.728;2022-07-29T14:02:03;24.80;99.90
70368;DHT22;57789;53.868;10.728;2022-07-29T14:04:29;24.90;99.90
70368;DHT22;57789;53.868;10.728;2022-07-29T14:06:55;25.20;99.90
70368;DHT22;57789;53.868;10.728;2022-07-29T14:09:20;25.00;99.90
70368;DHT22;57789;53.868;10.728;2022-07-29T14:11:46;24.80;99.90
70368;DHT22;57789;53.868;10.728;2022-07-29T14:14:15;24.80;99.90
70368;DHT22;57789;53.868;10.728;2022-07-29T14:16:40;24.30;99.90
70368;DHT22;57789;53.868;10.728;2022-07-29T14:19:08;23.90;99.90
70368;DHT22;57789;53.868;10.728;2022-07-29T14:21:34;23.80;99.90
70368;DHT22;57789;53.868;10.728;2022-07-29T14:24:00;24.10;99.90
70368;DHT22;57789;53.868;10.728;2022-07-29T14:26:26;24.50;99.90
70368;DHT22;57789;53.868;10.728;2022-07-29T14:28:51;25.60;99.90
70368;DHT22;57789;53.868;10.728;2022-07-29T14:31:18;26.40;99.90
70368;DHT22;57789;53.868;10.728;2022-07-29T14:33:46;26.20;99.90
70368;DHT22;57789;53.868;10.728;2022-07-29T14:36:13;25.70;99.90
70368;DHT22;57789;53.868;10.728;2022-07-29T14:38:39;25.00;99.90
70368;DHT22;57789;53.868;10.728;2022-07-29T14:41:07;25.00;99.90
70368;DHT22;57789;53.868;10.728;2022-07-29T14:43:34;25.20;99.90
70368;DHT22;57789;53.868;10.728;2022-07-29T14:46:01;25.70;99.90
70368;DHT22;57789;53.868;10.728;2022-07-29T14:48:27;26.40;99.90
70368;DHT22;57789;53.868;10.728;2022-07-29T14:50:53;27.50;99.90
70368;DHT22;57789;53.868;10.728;2022-07-29T14:53:21;28.50;99.90
70368;DHT22;57789;53.868;10.728;2022-07-29T14:55:47;29.20;98.80
70368;DHT22;57789;53.868;10.728;2022-07-29T14:58:13;29.70;97.80
70368;DHT22;57789;53.868;10.728;2022-07-29T15:00:40;29.80;96.60
70368;DHT22;57789;53.868;10.728;2022-07-29T15:03:06;29.80;96.20
70368;DHT22;57789;53.868;10.728;2022-07-29T15:05:34;29.10;96.20
70368;DHT22;57789;53.868;10.728;2022-07-29T15:08:01;28.80;97.20
70368;DHT22;57789;53.868;10.728;2022-07-29T15:10:27;28.70;97.00
70368;DHT22;57789;53.868;10.728;2022-07-29T15:12:53;29.10;96.40
70368;DHT22;57789;53.868;10.728;2022-07-29T15:15:19;29.20;96.30
70368;DHT22;57789;53.868;10.728;2022-07-29T15:17:45;29.60;95.90
70368;DHT22;57789;53.868;10.728;2022-07-29T15:20:12;29.90;95.80
70368;DHT22;57789;53.868;10.728;2022-07-29T15:22:38;29.90;95.10
70368;DHT22;57789;53.868;10.728;2022-07-29T15:25:05;30.10;94.60
70368;DHT22;57789;53.868;10.728;2022-07-29T15:27:31;29.60;94.40
70368;DHT22;57789;53.868;10.728;2022-07-29T15:29:57;28.60;95.40
70368;DHT22;57789;53.868;10.728;2022-07-29T15:32:23;28.90;95.50
70368;DHT22;57789;53.868;10.728;2022-07-29T15:34:48;29.10;95.50
70368;DHT22;57789;53.868;10.728;2022-07-29T15:37:14;29.00;95.00
70368;DHT22;57789;53.868;10.728;2022-07-29T15:39:40;28.80;95.30
70368;DHT22;57789;53.868;10.728;2022-07-29T15:42:06;29.50;95.10
70368;DHT22;57789;53.868;10.728;2022-07-29T15:44:31;29.60;94.70
70368;DHT22;57789;53.868;10.728;2022-07-29T15:46:58;29.60;94.60
70368;DHT22;57789;53.868;10.728;2022-07-29T15:49:36;30.50;93.70
70368;DHT22;57789;53.868;10.728;2022-07-29T15:52:08;30.20;93.10
70368;DHT22;57789;53.868;10.728;2022-07-29T15:54:36;29.90;93.00
70368;DHT22;57789;53.868;10.728;2022-07-29T15:57:04;29.80;93.70
70368;DHT22;57789;53.868;10.728;2022-07-29T15:59:31;29.70;93.20
70368;DHT22;57789;53.868;10.728;2022-07-29T16:01:58;29.70;93.20